Quinhagak, Alaska
Current Conditions -  °F | °C
As of 10:56 PM on Tuesday 25 Nov 2014 (Local Time) from PAQH Reporting Station
Few Clouds Few Clouds  
Wind Chill: 24°   Ceiling: Unl
Heat Index: 31°   Visibility: 10mi
Dew Point: 29°   Wind: 7mph
Humidity: 92%   Direction: 100°E
Pressure: 30.26"   Gusts: NA
Location:  59.75°N, 161.92°W
Report Text: PAQH 260756Z AUTO 10006KT 10SM FEW060 M01/M02 A3026 RMK AO2 SLP249 T10061017 FZRANO
Loading
Personal Weather Stations






























Interactive Weather Map New forecast layout! Learn more

10-Day Weather Forecast

Advertisements
Track Severe Weather on mobile